createdAt,value
2023-03-08T00:00:18.648Z,42
2023-03-08T00:05:18.939Z,42
2023-03-08T00:10:13.770Z,42
2023-03-08T00:15:14.529Z,42
2023-03-08T00:20:20.574Z,40
2023-03-08T00:25:16.341Z,40
2023-03-08T00:30:20.309Z,42
2023-03-08T00:35:20.240Z,40
2023-03-08T00:40:16.010Z,42
2023-03-08T00:45:17.855Z,42
2023-03-08T00:50:15.682Z,42
2023-03-08T00:55:14.554Z,40
2023-03-08T01:00:16.434Z,40
2023-03-08T01:05:14.314Z,42
2023-03-08T01:10:22.201Z,41
2023-03-08T01:15:18.140Z,42
2023-03-08T01:20:19.978Z,42
2023-03-08T01:25:13.791Z,41
2023-03-08T01:30:15.607Z,42
2023-03-08T01:35:16.650Z,42
2023-03-08T01:40:20.444Z,42
2023-03-08T01:45:16.251Z,41
2023-03-08T01:50:20.018Z,41
2023-03-08T01:55:15.842Z,41
2023-03-08T02:00:13.905Z,42
2023-03-08T02:05:15.823Z,42
2023-03-08T02:10:15.542Z,42
2023-03-08T02:15:16.456Z,42
2023-03-08T02:20:16.265Z,42
2023-03-08T02:25:20.101Z,42
2023-03-08T02:30:13.937Z,42
2023-03-08T02:40:20.506Z,41
2023-03-08T02:45:22.325Z,42
2023-03-08T02:50:18.101Z,41
2023-03-08T02:55:13.950Z,42
2023-03-08T03:00:13.973Z,42
2023-03-08T03:05:18.033Z,41
2023-03-08T03:10:25.811Z,42
2023-03-08T03:15:14.177Z,42
2023-03-08T03:20:18.183Z,41
2023-03-08T03:25:17.935Z,42
2023-03-08T03:30:17.769Z,42
2023-03-08T03:35:14.633Z,42
2023-03-08T03:40:14.433Z,42
2023-03-08T03:45:22.355Z,42
2023-03-08T03:50:20.265Z,42
2023-03-08T03:55:19.978Z,41
2023-03-08T04:00:17.847Z,42
2023-03-08T04:05:17.594Z,43
2023-03-08T04:10:16.602Z,42
2023-03-08T04:15:18.435Z,43
2023-03-08T04:20:22.259Z,42
2023-03-08T04:25:18.015Z,42
2023-03-08T04:30:15.948Z,42
2023-03-08T04:35:17.657Z,42
2023-03-08T04:40:14.461Z,42
2023-03-08T04:45:22.325Z,42
2023-03-08T04:50:14.051Z,41
2023-03-08T04:55:19.826Z,42
2023-03-08T05:00:19.790Z,44
2023-03-08T05:05:16.985Z,44
2023-03-08T05:10:15.848Z,44
2023-03-08T05:15:15.668Z,46
2023-03-08T05:20:14.640Z,46
2023-03-08T05:25:18.479Z,47
2023-03-08T05:30:14.292Z,45
2023-03-08T05:35:15.992Z,45
2023-03-08T05:40:13.810Z,44
2023-03-08T05:45:14.115Z,44
2023-03-08T05:50:14.151Z,45
2023-03-08T05:55:15.912Z,44
2023-03-08T06:00:17.843Z,46
2023-03-08T06:05:32.306Z,47
2023-03-08T06:10:18.328Z,46
2023-03-08T06:15:20.339Z,46
2023-03-08T06:20:16.188Z,46
2023-03-08T06:25:14.114Z,46
2023-03-08T06:30:16.019Z,46
2023-03-08T06:35:13.978Z,47
2023-03-08T06:40:15.799Z,48
2023-03-08T06:45:13.624Z,46
2023-03-08T06:50:18.570Z,46
2023-03-08T06:55:20.452Z,45
2023-03-08T07:00:16.362Z,45
2023-03-08T07:05:23.909Z,45
2023-03-08T07:10:15.877Z,45
2023-03-08T07:15:15.681Z,45
2023-03-08T07:20:14.565Z,45
2023-03-08T07:25:16.229Z,45
2023-03-08T07:30:16.184Z,44
2023-03-08T07:35:19.953Z,45
2023-03-08T07:40:15.781Z,45
2023-03-08T07:45:14.482Z,44
2023-03-08T07:50:18.480Z,44
2023-03-08T07:55:18.333Z,44
2023-03-08T08:00:18.241Z,44
2023-03-08T08:05:14.667Z,44
2023-03-08T08:10:16.643Z,43
2023-03-08T08:15:16.501Z,43
2023-03-08T08:20:24.376Z,43
2023-03-08T08:25:20.199Z,44
2023-03-08T08:30:16.192Z,44
2023-03-08T08:35:16.108Z,44
2023-03-08T08:40:16.067Z,44
2023-03-08T08:45:16.436Z,43
2023-03-08T08:50:20.328Z,43
2023-03-08T08:55:16.128Z,43
2023-03-08T09:00:15.918Z,42
2023-03-08T09:05:24.943Z,42
2023-03-08T09:10:13.846Z,43
2023-03-08T09:15:21.770Z,43
2023-03-08T09:20:17.718Z,42
2023-03-08T09:25:20.817Z,42
2023-03-08T09:30:17.828Z,42
2023-03-08T09:35:23.845Z,41
2023-03-08T09:40:19.784Z,42
2023-03-08T09:45:19.817Z,42
2023-03-08T09:50:16.623Z,42
2023-03-08T09:55:17.109Z,42
2023-03-08T10:00:16.031Z,42
2023-03-08T10:05:29.674Z,42
2023-03-08T10:10:14.508Z,42
2023-03-08T10:15:14.354Z,42
2023-03-08T10:20:14.211Z,42
2023-03-08T10:25:16.039Z,42
2023-03-08T10:30:13.904Z,42
2023-03-08T10:35:13.774Z,42
2023-03-08T10:40:18.701Z,42
2023-03-08T10:45:19.788Z,42
2023-03-08T10:50:18.696Z,42
2023-03-08T10:55:22.659Z,42
2023-03-08T11:00:16.550Z,42
2023-03-08T11:05:16.607Z,42
2023-03-08T11:10:14.516Z,43
2023-03-08T11:15:15.994Z,43
2023-03-08T11:20:19.984Z,42
2023-03-08T11:25:21.909Z,44
2023-03-08T11:30:13.765Z,44
2023-03-08T11:35:16.734Z,43
2023-03-08T11:40:14.587Z,44
2023-03-08T11:45:20.545Z,44
2023-03-08T11:50:20.386Z,44
2023-03-08T11:55:18.648Z,44
2023-03-08T12:00:14.883Z,43
2023-03-08T12:05:19.225Z,44
2023-03-08T12:10:16.826Z,44
2023-03-08T12:15:14.539Z,43
2023-03-08T12:20:22.601Z,42
2023-03-08T12:25:24.408Z,44
2023-03-08T12:30:22.422Z,43
2023-03-08T12:35:16.293Z,43
2023-03-08T12:40:16.171Z,44
2023-03-08T12:45:18.150Z,43
2023-03-08T12:50:30.143Z,43
2023-03-08T12:55:24.142Z,42
2023-03-08T13:00:21.997Z,43
2023-03-08T13:05:16.483Z,43
2023-03-08T13:10:18.553Z,43
2023-03-08T13:15:14.444Z,43
2023-03-08T13:20:20.691Z,42
2023-03-08T13:25:32.015Z,42
2023-03-08T13:30:18.343Z,42
2023-03-08T13:35:14.223Z,43
2023-03-08T13:40:18.050Z,43
2023-03-08T13:45:18.064Z,44
2023-03-08T13:50:14.030Z,44
2023-03-08T13:55:16.676Z,44
2023-03-08T14:00:19.065Z,43
2023-03-08T14:05:20.394Z,44
2023-03-08T14:10:16.359Z,44
2023-03-08T14:15:14.846Z,44
2023-03-08T14:20:22.598Z,43
2023-03-08T14:25:25.028Z,43
2023-03-08T14:30:20.286Z,44
2023-03-08T14:35:16.406Z,44
2023-03-08T14:40:20.177Z,44
2023-03-08T14:45:14.047Z,44
2023-03-08T14:50:15.767Z,44
2023-03-08T14:55:15.113Z,44
2023-03-08T15:00:17.946Z,44
2023-03-08T15:05:30.107Z,44
2023-03-08T15:10:18.023Z,46
2023-03-08T15:15:15.869Z,45
2023-03-08T15:20:13.736Z,46
2023-03-08T15:25:16.516Z,46
2023-03-08T15:30:16.369Z,45
2023-03-08T15:35:18.124Z,44
2023-03-08T15:40:16.104Z,45
2023-03-08T15:45:15.909Z,45
2023-03-08T15:50:15.904Z,45
2023-03-08T15:55:13.810Z,45
2023-03-08T16:00:13.626Z,45
2023-03-08T16:05:16.870Z,45
2023-03-08T16:10:19.587Z,45
2023-03-08T16:15:19.043Z,45
2023-03-08T16:20:13.805Z,45
2023-03-08T16:25:16.535Z,45
2023-03-08T16:30:16.713Z,45
2023-03-08T16:35:16.612Z,46
2023-03-08T16:40:24.992Z,45
2023-03-08T16:45:19.801Z,45
2023-03-08T16:50:18.410Z,45
2023-03-08T16:55:18.269Z,45
2023-03-08T17:00:18.295Z,45
2023-03-08T17:05:16.419Z,46
2023-03-08T17:10:18.318Z,46
2023-03-08T17:15:16.343Z,46
2023-03-08T17:20:18.257Z,46
2023-03-08T17:25:18.148Z,46
2023-03-08T17:30:16.183Z,46
2023-03-08T17:35:21.961Z,46
2023-03-08T17:40:19.800Z,46
2023-03-08T17:45:17.640Z,46
2023-03-08T17:50:20.438Z,47
2023-03-08T17:55:14.182Z,46
2023-03-08T18:00:20.518Z,46
2023-03-08T18:05:16.614Z,46
2023-03-08T18:10:14.509Z,46
2023-03-08T18:15:18.357Z,46
2023-03-08T18:20:16.341Z,46
2023-03-08T18:25:20.127Z,45
2023-03-08T18:30:15.899Z,46
2023-03-08T18:35:17.724Z,46
2023-03-08T18:40:26.942Z,46
2023-03-08T18:45:17.781Z,46
2023-03-08T18:50:22.550Z,47
2023-03-08T18:55:14.410Z,47
2023-03-08T19:00:20.282Z,47
2023-03-08T19:05:15.956Z,48
2023-03-08T19:10:15.681Z,47
2023-03-08T19:15:20.609Z,47
2023-03-08T19:20:18.626Z,46
2023-03-08T19:25:16.358Z,47
2023-03-08T19:30:14.319Z,47
2023-03-08T19:35:24.177Z,46
2023-03-08T19:40:24.071Z,47
2023-03-08T19:45:13.822Z,48
2023-03-08T19:50:17.738Z,47
2023-03-08T19:55:22.689Z,48
2023-03-08T20:00:16.613Z,47
2023-03-08T20:05:20.376Z,47
2023-03-08T20:10:40.518Z,47
2023-03-08T20:15:16.793Z,47
2023-03-08T20:20:20.531Z,46
2023-03-08T20:25:26.293Z,47
2023-03-08T20:30:14.125Z,46
2023-03-08T20:35:18.010Z,45
2023-03-08T20:40:19.746Z,46
2023-03-08T20:45:16.849Z,46
2023-03-08T20:50:13.742Z,46
2023-03-08T20:55:26.509Z,46
2023-03-08T21:00:24.508Z,45
2023-03-08T21:05:28.300Z,46
2023-03-08T21:10:16.089Z,46
2023-03-08T21:15:20.358Z,46
2023-03-08T21:20:18.183Z,46
2023-03-08T21:25:17.981Z,46
2023-03-08T21:30:19.899Z,46
2023-03-08T21:35:19.745Z,46
2023-03-08T21:40:16.571Z,46
2023-03-08T21:45:16.459Z,46
2023-03-08T21:50:18.379Z,46
2023-03-08T21:55:18.177Z,46
2023-03-08T22:00:13.970Z,46
2023-03-08T22:05:19.788Z,46
2023-03-08T22:10:16.564Z,46
2023-03-08T22:15:16.544Z,45
2023-03-08T22:20:16.433Z,45
2023-03-08T22:25:20.191Z,44
2023-03-08T22:30:18.073Z,44
2023-03-08T22:35:15.839Z,46
2023-03-08T22:40:19.616Z,45
2023-03-08T22:45:16.480Z,45
2023-03-08T22:50:14.369Z,45
2023-03-08T22:55:14.282Z,44
2023-03-08T23:00:16.076Z,46
2023-03-08T23:05:21.844Z,44
2023-03-08T23:10:17.619Z,46
2023-03-08T23:15:14.595Z,44
2023-03-08T23:20:14.926Z,45
2023-03-08T23:25:17.687Z,44
2023-03-08T23:30:14.530Z,44
2023-03-08T23:35:20.298Z,45
2023-03-08T23:40:20.096Z,44
2023-03-08T23:45:17.882Z,45
2023-03-08T23:50:15.667Z,45
2023-03-08T23:55:14.427Z,45
